createdAt,value
2023-04-14T00:00:03.135Z,1008.67
2023-04-14T00:00:21.925Z,1008.69
2023-04-14T00:00:31.337Z,1008.61
2023-04-14T00:00:40.730Z,1008.57
2023-04-14T00:00:50.195Z,1008.63
2023-04-14T00:00:59.588Z,1008.68
2023-04-14T00:01:09.005Z,1008.64
2023-04-14T00:01:27.837Z,1008.67
2023-04-14T00:01:37.236Z,1008.64
2023-04-14T00:01:46.672Z,1008.64
2023-04-14T00:01:56.149Z,1008.65
2023-04-14T00:02:05.529Z,1008.65
2023-04-14T00:02:14.954Z,1008.63
2023-04-14T00:02:33.854Z,1008.63
2023-04-14T00:02:43.193Z,1008.66
2023-04-14T00:02:52.693Z,1008.63
2023-04-14T00:03:02.255Z,1008.68
2023-04-14T00:03:11.549Z,1008.65
2023-04-14T00:03:20.980Z,1008.68
2023-04-14T00:03:39.874Z,1008.67
2023-04-14T00:03:49.284Z,1008.59
2023-04-14T00:03:58.763Z,1008.60
2023-04-14T00:04:08.057Z,1008.65
2023-04-14T00:04:17.622Z,1008.70
2023-04-14T00:04:27.097Z,1008.70
2023-04-14T00:04:45.672Z,1008.71
2023-04-14T00:04:55.105Z,1008.70
2023-04-14T00:05:04.546Z,1008.69
2023-04-14T00:05:13.931Z,1008.71
2023-04-14T00:05:23.342Z,1008.65
2023-04-14T00:05:32.823Z,1008.68
2023-04-14T00:05:51.634Z,1008.70
2023-04-14T00:06:01.155Z,1008.65
2023-04-14T00:06:10.562Z,1008.68
2023-04-14T00:06:19.958Z,1008.71
2023-04-14T00:06:29.356Z,1008.66
2023-04-14T00:06:38.765Z,1008.72
2023-04-14T00:06:57.962Z,1008.73
2023-04-14T00:07:07.425Z,1008.67
2023-04-14T00:07:16.852Z,1008.67
2023-04-14T00:07:26.278Z,1008.69
2023-04-14T00:07:35.645Z,1008.71
2023-04-14T00:07:45.090Z,1008.70
2023-04-14T00:08:03.925Z,1008.74
2023-04-14T00:08:13.337Z,1008.73
2023-04-14T00:08:22.740Z,1008.75
2023-04-14T00:08:32.175Z,1008.77
2023-04-14T00:08:41.585Z,1008.69
2023-04-14T00:08:51.009Z,1008.72
2023-04-14T00:09:09.809Z,1008.81
2023-04-14T00:09:19.217Z,1008.71
2023-04-14T00:09:28.775Z,1008.71
2023-04-14T00:09:38.137Z,1008.68
2023-04-14T00:09:47.536Z,1008.79
2023-04-14T00:09:57.405Z,1008.78
2023-04-14T00:10:16.483Z,1008.77
2023-04-14T00:10:25.898Z,1008.85
2023-04-14T00:10:35.314Z,1008.81
2023-04-14T00:10:44.720Z,1008.78
2023-04-14T00:10:54.122Z,1008.80
2023-04-14T00:11:03.558Z,1008.79
2023-04-14T00:11:22.406Z,1008.82
2023-04-14T00:11:31.799Z,1008.76
2023-04-14T00:11:41.187Z,1008.74
2023-04-14T00:11:50.583Z,1008.76
2023-04-14T00:12:00.478Z,1008.79
2023-04-14T00:12:09.902Z,1008.81
2023-04-14T00:12:28.703Z,1008.83
2023-04-14T00:12:38.094Z,1008.78
2023-04-14T00:12:47.515Z,1008.83
2023-04-14T00:12:56.928Z,1008.77
2023-04-14T00:13:06.364Z,1008.75
2023-04-14T00:13:15.792Z,1008.78
2023-04-14T00:13:34.598Z,1008.81
2023-04-14T00:13:44.017Z,1008.74
2023-04-14T00:13:53.453Z,1008.83
2023-04-14T00:14:02.899Z,1008.78
2023-04-14T00:14:12.314Z,1008.73
2023-04-14T00:14:21.702Z,1008.78
2023-04-14T00:14:40.496Z,1008.79
2023-04-14T00:14:49.892Z,1008.73
2023-04-14T00:14:59.308Z,1008.73
2023-04-14T00:15:08.739Z,1008.78
2023-04-14T00:15:18.250Z,1008.79
2023-04-14T00:15:27.639Z,1008.75
2023-04-14T00:15:46.473Z,1008.79
2023-04-14T00:15:55.861Z,1008.80
2023-04-14T00:16:05.251Z,1008.73
2023-04-14T00:16:14.677Z,1008.71
2023-04-14T00:16:24.120Z,1008.75
2023-04-14T00:16:33.536Z,1008.79
2023-04-14T00:16:52.422Z,1008.78
2023-04-14T00:17:01.831Z,1008.76
2023-04-14T00:17:11.337Z,1008.75
2023-04-14T00:17:20.708Z,1008.84
2023-04-14T00:17:30.092Z,1008.76
2023-04-14T00:17:39.497Z,1008.82
2023-04-14T00:17:58.388Z,1008.79
2023-04-14T00:18:08.005Z,1008.76
2023-04-14T00:18:17.364Z,1008.74
2023-04-14T00:18:26.805Z,1008.77
2023-04-14T00:18:36.237Z,1008.72
2023-04-14T00:18:45.652Z,1008.77
2023-04-14T00:19:04.461Z,1008.79
2023-04-14T00:19:13.892Z,1008.76
2023-04-14T00:19:23.299Z,1008.76
2023-04-14T00:19:32.727Z,1008.75
2023-04-14T00:19:42.135Z,1008.81
2023-04-14T00:19:51.616Z,1008.78
2023-04-14T00:20:10.436Z,1008.73
2023-04-14T00:20:19.848Z,1008.77
2023-04-14T00:20:29.241Z,1008.75
2023-04-14T00:20:38.677Z,1008.78
2023-04-14T00:20:48.089Z,1008.76
2023-04-14T00:20:57.575Z,1008.75
2023-04-14T00:21:16.379Z,1008.72
2023-04-14T00:21:25.837Z,1008.73
2023-04-14T00:21:35.244Z,1008.76
2023-04-14T00:21:44.659Z,1008.71
2023-04-14T00:21:54.099Z,1008.77
2023-04-14T00:22:03.524Z,1008.76
2023-04-14T00:22:22.381Z,1008.79
2023-04-14T00:22:31.784Z,1008.75
2023-04-14T00:22:41.172Z,1008.79
2023-04-14T00:22:50.588Z,1008.77
2023-04-14T00:23:00.045Z,1008.74
2023-04-14T00:23:09.482Z,1008.78
2023-04-14T00:23:28.304Z,1008.82
2023-04-14T00:23:37.765Z,1008.72
2023-04-14T00:23:47.193Z,1008.78
2023-04-14T00:23:56.605Z,1008.77
2023-04-14T00:24:06.009Z,1008.70
2023-04-14T00:24:15.452Z,1008.80
2023-04-14T00:24:34.297Z,1008.78
2023-04-14T00:24:43.765Z,1008.79
2023-04-14T00:24:53.179Z,1008.89
2023-04-14T00:25:02.597Z,1008.78
2023-04-14T00:25:12.026Z,1008.75
2023-04-14T00:25:21.457Z,1008.77
2023-04-14T00:25:40.291Z,1008.84
2023-04-14T00:25:49.693Z,1008.80
2023-04-14T00:25:59.162Z,1008.70
2023-04-14T00:26:08.575Z,1008.80
2023-04-14T00:26:17.974Z,1008.77
2023-04-14T00:26:27.417Z,1008.77
2023-04-14T00:26:46.268Z,1008.76
2023-04-14T00:26:55.665Z,1008.84
2023-04-14T00:27:05.091Z,1008.71
2023-04-14T00:27:14.491Z,1008.75
2023-04-14T00:27:23.902Z,1008.83
2023-04-14T00:27:33.724Z,1008.77
2023-04-14T00:27:52.541Z,1008.79
2023-04-14T00:28:02.011Z,1008.75
2023-04-14T00:28:11.484Z,1008.81
2023-04-14T00:28:20.912Z,1008.84
2023-04-14T00:28:30.326Z,1008.76
2023-04-14T00:28:39.744Z,1008.82
2023-04-14T00:28:58.816Z,1008.79
2023-04-14T00:29:07.990Z,1008.79
2023-04-14T00:29:17.427Z,1008.77
2023-04-14T00:29:26.887Z,1008.76
2023-04-14T00:29:36.274Z,1008.75
2023-04-14T00:29:45.692Z,1008.76
2023-04-14T00:30:04.538Z,1008.75
2023-04-14T00:30:13.961Z,1008.79
2023-04-14T00:30:23.383Z,1008.81
2023-04-14T00:30:32.805Z,1008.82
2023-04-14T00:30:42.275Z,1008.79
2023-04-14T00:30:51.718Z,1008.79
2023-04-14T00:31:10.537Z,1008.75
2023-04-14T00:31:19.904Z,1008.70
2023-04-14T00:31:29.350Z,1008.75
2023-04-14T00:31:38.695Z,1008.80
2023-04-14T00:31:48.072Z,1008.80
2023-04-14T00:31:57.487Z,1008.71
2023-04-14T00:32:16.372Z,1008.67
2023-04-14T00:32:25.916Z,1008.64
2023-04-14T00:32:35.355Z,1008.69
2023-04-14T00:32:44.752Z,1008.70
2023-04-14T00:32:54.190Z,1008.70
2023-04-14T00:33:03.586Z,1008.64
2023-04-14T00:33:22.372Z,1008.70
2023-04-14T00:33:31.794Z,1008.76
2023-04-14T00:33:41.214Z,1008.66
2023-04-14T00:33:50.655Z,1008.72
2023-04-14T00:34:00.070Z,1008.73
2023-04-14T00:34:09.476Z,1008.70
2023-04-14T00:34:28.350Z,1008.62
2023-04-14T00:34:37.736Z,1008.73
2023-04-14T00:34:47.179Z,1008.70
2023-04-14T00:34:56.586Z,1008.71
2023-04-14T00:35:05.986Z,1008.62
2023-04-14T00:35:15.392Z,1008.71
2023-04-14T00:35:34.263Z,1008.66
2023-04-14T00:35:43.697Z,1008.65
2023-04-14T00:35:53.096Z,1008.69
2023-04-14T00:36:02.525Z,1008.75
2023-04-14T00:36:11.897Z,1008.74
2023-04-14T00:36:21.313Z,1008.69
2023-04-14T00:36:40.107Z,1008.68
2023-04-14T00:36:49.511Z,1008.66
2023-04-14T00:36:58.889Z,1008.72
2023-04-14T00:37:08.291Z,1008.68
2023-04-14T00:37:17.693Z,1008.70
2023-04-14T00:37:27.100Z,1008.67
2023-04-14T00:37:45.976Z,1008.72
2023-04-14T00:37:55.365Z,1008.66
2023-04-14T00:38:04.793Z,1008.71
2023-04-14T00:38:14.183Z,1008.75
2023-04-14T00:38:23.573Z,1008.72
2023-04-14T00:38:33.011Z,1008.70
2023-04-14T00:38:51.793Z,1008.67
2023-04-14T00:39:01.426Z,1008.70
2023-04-14T00:39:10.612Z,1008.72
2023-04-14T00:39:20.025Z,1008.67
2023-04-14T00:39:29.446Z,1008.71
2023-04-14T00:39:38.854Z,1008.69
2023-04-14T00:39:57.698Z,1008.73
2023-04-14T00:40:07.099Z,1008.69
2023-04-14T00:40:16.525Z,1008.65
2023-04-14T00:40:25.905Z,1008.66
2023-04-14T00:40:35.339Z,1008.70
2023-04-14T00:40:44.747Z,1008.69
2023-04-14T00:41:03.586Z,1008.65
2023-04-14T00:41:13.050Z,1008.66
2023-04-14T00:41:22.506Z,1008.72
2023-04-14T00:41:31.906Z,1008.68
2023-04-14T00:41:41.314Z,1008.70
2023-04-14T00:41:50.690Z,1008.71
2023-04-14T00:42:09.537Z,1008.62
2023-04-14T00:42:18.953Z,1008.68
2023-04-14T00:42:28.368Z,1008.73
2023-04-14T00:42:37.763Z,1008.64
2023-04-14T00:42:47.186Z,1008.70
2023-04-14T00:42:56.575Z,1008.71
2023-04-14T00:43:15.403Z,1008.66
2023-04-14T00:43:24.797Z,1008.70
2023-04-14T00:43:34.210Z,1008.67
2023-04-14T00:43:43.608Z,1008.61
2023-04-14T00:43:53.005Z,1008.72
2023-04-14T00:44:02.476Z,1008.69
2023-04-14T00:44:21.316Z,1008.64
2023-04-14T00:44:30.769Z,1008.64
2023-04-14T00:44:40.155Z,1008.59
2023-04-14T00:44:49.608Z,1008.68
2023-04-14T00:44:59.003Z,1008.66
2023-04-14T00:45:08.424Z,1008.66
2023-04-14T00:45:27.238Z,1008.68
2023-04-14T00:45:36.651Z,1008.68
2023-04-14T00:45:46.055Z,1008.67
2023-04-14T00:45:55.598Z,1008.67
2023-04-14T00:46:04.923Z,1008.74
2023-04-14T00:46:14.380Z,1008.66
2023-04-14T00:46:33.155Z,1008.62
2023-04-14T00:46:42.657Z,1008.65
2023-04-14T00:46:51.967Z,1008.65
2023-04-14T00:47:01.462Z,1008.64
2023-04-14T00:47:10.869Z,1008.73
2023-04-14T00:47:20.366Z,1008.70
2023-04-14T00:47:39.278Z,1008.65
2023-04-14T00:47:48.646Z,1008.71
2023-04-14T00:47:58.117Z,1008.67
2023-04-14T00:48:07.567Z,1008.65
2023-04-14T00:48:16.953Z,1008.65
2023-04-14T00:48:26.370Z,1008.65
2023-04-14T00:48:45.213Z,1008.65
2023-04-14T00:48:54.636Z,1008.72
2023-04-14T00:49:04.184Z,1008.62
2023-04-14T00:49:13.482Z,1008.72
2023-04-14T00:49:22.920Z,1008.66
2023-04-14T00:49:32.290Z,1008.68
2023-04-14T00:49:51.135Z,1008.63
2023-04-14T00:50:00.518Z,1008.70
2023-04-14T00:50:09.952Z,1008.71
2023-04-14T00:50:19.337Z,1008.71
2023-04-14T00:50:28.804Z,1008.66
2023-04-14T00:50:38.228Z,1008.71
2023-04-14T00:50:57.032Z,1008.62
2023-04-14T00:51:06.453Z,1008.68
2023-04-14T00:51:15.843Z,1008.71
2023-04-14T00:51:25.257Z,1008.71
2023-04-14T00:51:34.689Z,1008.68
2023-04-14T00:51:44.110Z,1008.75
2023-04-14T00:52:03.039Z,1008.67
2023-04-14T00:52:12.471Z,1008.73
2023-04-14T00:52:21.900Z,1008.73
2023-04-14T00:52:31.324Z,1008.70
2023-04-14T00:52:40.749Z,1008.71
2023-04-14T00:52:50.188Z,1008.77
2023-04-14T00:53:09.138Z,1008.72
2023-04-14T00:53:18.611Z,1008.70
2023-04-14T00:53:28.017Z,1008.71
2023-04-14T00:53:37.432Z,1008.69
2023-04-14T00:53:46.884Z,1008.75
2023-04-14T00:53:56.310Z,1008.70
2023-04-14T00:54:15.167Z,1008.75
2023-04-14T00:54:24.582Z,1008.68
2023-04-14T00:54:34.033Z,1008.69
2023-04-14T00:54:43.454Z,1008.72
2023-04-14T00:54:52.902Z,1008.65
2023-04-14T00:55:02.350Z,1008.72
2023-04-14T00:55:21.349Z,1008.73
2023-04-14T00:55:30.661Z,1008.76
2023-04-14T00:55:40.088Z,1008.71
2023-04-14T00:55:49.504Z,1008.71
2023-04-14T00:55:58.955Z,1008.71
2023-04-14T00:56:08.446Z,1008.71
2023-04-14T00:56:27.308Z,1008.76
2023-04-14T00:56:36.699Z,1008.70
2023-04-14T00:56:46.129Z,1008.82
2023-04-14T00:56:55.507Z,1008.73
2023-04-14T00:57:04.937Z,1008.80
2023-04-14T00:57:14.325Z,1008.77
2023-04-14T00:57:33.194Z,1008.77
2023-04-14T00:57:42.603Z,1008.76
2023-04-14T00:57:52.036Z,1008.76
2023-04-14T00:58:01.514Z,1008.80
2023-04-14T00:58:10.921Z,1008.80
2023-04-14T00:58:20.367Z,1008.77
2023-04-14T00:58:39.185Z,1008.87
2023-04-14T00:58:48.615Z,1008.83
2023-04-14T00:58:58.102Z,1008.83
2023-04-14T00:59:07.457Z,1008.84
2023-04-14T00:59:16.869Z,1008.80
2023-04-14T00:59:26.285Z,1008.78
2023-04-14T00:59:45.126Z,1008.83
2023-04-14T00:59:54.565Z,1008.82
2023-04-14T01:00:03.996Z,1008.84
2023-04-14T01:00:13.386Z,1008.80
2023-04-14T01:00:22.824Z,1008.85
2023-04-14T01:00:32.247Z,1008.87
2023-04-14T01:00:51.074Z,1008.78
2023-04-14T01:01:00.504Z,1008.85
2023-04-14T01:01:09.912Z,1008.93
2023-04-14T01:01:19.370Z,1008.87
2023-04-14T01:01:28.836Z,1008.87
2023-04-14T01:01:38.276Z,1008.83
2023-04-14T01:01:57.248Z,1008.90
2023-04-14T01:02:06.628Z,1008.90
2023-04-14T01:02:15.973Z,1008.86
2023-04-14T01:02:25.613Z,1008.88
2023-04-14T01:02:34.959Z,1008.90
2023-04-14T01:02:44.548Z,1008.86
2023-04-14T01:03:03.240Z,1008.92
2023-04-14T01:03:12.613Z,1008.91
2023-04-14T01:03:21.964Z,1008.85
2023-04-14T01:03:31.443Z,1008.93
2023-04-14T01:03:40.982Z,1008.97
2023-04-14T01:03:50.398Z,1008.90
2023-04-14T01:04:09.152Z,1008.86
2023-04-14T01:04:18.562Z,1008.90
2023-04-14T01:04:40.517Z,1008.86
2023-04-14T01:04:51.899Z,1008.93
2023-04-14T01:04:54.284Z,1008.90
2023-04-14T01:04:56.411Z,1008.90
2023-04-14T01:05:15.296Z,1008.90
2023-04-14T01:05:24.672Z,1008.92
2023-04-14T01:05:34.043Z,1008.96
2023-04-14T01:05:43.442Z,1008.87
2023-04-14T01:05:52.862Z,1008.88
2023-04-14T01:06:02.294Z,1008.93
2023-04-14T01:06:21.153Z,1008.90
2023-04-14T01:06:30.527Z,1008.94
2023-04-14T01:06:39.983Z,1008.88
2023-04-14T01:06:49.404Z,1008.88
2023-04-14T01:06:58.814Z,1008.95
2023-04-14T01:07:08.239Z,1008.95
2023-04-14T01:07:27.083Z,1009.01
2023-04-14T01:07:36.515Z,1008.91
2023-04-14T01:07:45.969Z,1008.88
2023-04-14T01:07:55.380Z,1008.90
2023-04-14T01:08:04.800Z,1008.94
2023-04-14T01:08:14.280Z,1008.91
2023-04-14T01:08:33.243Z,1008.87
2023-04-14T01:08:42.695Z,1008.97
2023-04-14T01:08:52.118Z,1008.96
2023-04-14T01:09:01.830Z,1008.93
2023-04-14T01:09:10.951Z,1008.97
2023-04-14T01:09:20.412Z,1008.93
2023-04-14T01:09:39.335Z,1008.94
2023-04-14T01:09:48.762Z,1008.96
2023-04-14T01:09:58.214Z,1008.93
2023-04-14T01:10:07.679Z,1008.94
2023-04-14T01:10:17.112Z,1008.92
2023-04-14T01:10:26.549Z,1008.98
2023-04-14T01:10:45.318Z,1008.92
2023-04-14T01:10:54.715Z,1008.97
2023-04-14T01:11:04.287Z,1008.95
2023-04-14T01:11:13.701Z,1008.93
2023-04-14T01:11:23.117Z,1008.96
2023-04-14T01:11:32.513Z,1008.97
2023-04-14T01:11:51.361Z,1008.94
2023-04-14T01:12:00.824Z,1008.99
2023-04-14T01:12:10.284Z,1008.98
2023-04-14T01:12:19.677Z,1008.95
2023-04-14T01:12:29.103Z,1009.00
2023-04-14T01:12:38.537Z,1008.99
2023-04-14T01:12:57.322Z,1008.95
2023-04-14T01:13:06.720Z,1008.95
2023-04-14T01:13:16.139Z,1008.91
2023-04-14T01:13:25.566Z,1008.92
2023-04-14T01:13:35.001Z,1008.97
2023-04-14T01:13:44.430Z,1008.94
2023-04-14T01:14:03.304Z,1008.97
2023-04-14T01:14:12.711Z,1008.86
2023-04-14T01:14:22.144Z,1008.94
2023-04-14T01:14:31.581Z,1008.91
2023-04-14T01:14:40.988Z,1008.88
2023-04-14T01:14:50.484Z,1008.92
2023-04-14T01:15:09.329Z,1008.94
2023-04-14T01:15:18.743Z,1008.93
2023-04-14T01:15:28.187Z,1008.90
2023-04-14T01:15:37.722Z,1008.88
2023-04-14T01:15:47.032Z,1008.84
2023-04-14T01:15:56.472Z,1008.94
2023-04-14T01:16:15.303Z,1008.87
2023-04-14T01:16:24.760Z,1008.86
2023-04-14T01:16:34.235Z,1008.95
2023-04-14T01:16:43.629Z,1008.85
2023-04-14T01:16:53.061Z,1008.81
2023-04-14T01:17:02.476Z,1008.98
2023-04-14T01:17:21.354Z,1008.96
2023-04-14T01:17:30.843Z,1008.85
2023-04-14T01:17:40.272Z,1008.87
2023-04-14T01:17:49.789Z,1008.91
2023-04-14T01:17:59.089Z,1008.94
2023-04-14T01:18:08.578Z,1008.97
2023-04-14T01:18:27.490Z,1008.99
2023-04-14T01:18:36.912Z,1008.96
2023-04-14T01:18:46.319Z,1008.87
2023-04-14T01:18:55.741Z,1008.97
2023-04-14T01:19:05.167Z,1009.02
2023-04-14T01:19:14.595Z,1008.94
2023-04-14T01:19:33.444Z,1008.98
2023-04-14T01:19:42.880Z,1009.02
2023-04-14T01:19:52.275Z,1008.99
2023-04-14T01:20:01.698Z,1008.99
2023-04-14T01:20:11.136Z,1009.04
2023-04-14T01:20:20.548Z,1009.02
2023-04-14T01:20:39.390Z,1008.95
2023-04-14T01:20:48.825Z,1009.00
2023-04-14T01:20:58.228Z,1009.06
2023-04-14T01:21:07.673Z,1009.00
2023-04-14T01:21:17.090Z,1008.98
2023-04-14T01:21:26.510Z,1008.96
2023-04-14T01:21:45.331Z,1008.97
2023-04-14T01:21:54.751Z,1009.01
2023-04-14T01:22:04.172Z,1008.99
2023-04-14T01:22:13.660Z,1009.03
2023-04-14T01:22:23.086Z,1009.01
2023-04-14T01:22:32.501Z,1009.03
2023-04-14T01:22:51.358Z,1008.96
2023-04-14T01:23:00.823Z,1009.01
2023-04-14T01:23:10.222Z,1008.99
2023-04-14T01:23:19.695Z,1008.92
2023-04-14T01:23:29.134Z,1008.90
2023-04-14T01:23:38.559Z,1009.00
2023-04-14T01:23:57.401Z,1008.97
2023-04-14T01:24:06.816Z,1009.09
2023-04-14T01:24:16.251Z,1009.01
2023-04-14T01:24:25.691Z,1008.99
2023-04-14T01:24:35.113Z,1009.00
2023-04-14T01:24:44.560Z,1009.07
2023-04-14T01:25:03.434Z,1008.98
2023-04-14T01:25:12.860Z,1008.99
2023-04-14T01:25:22.332Z,1009.02
2023-04-14T01:25:31.744Z,1009.02
2023-04-14T01:25:41.155Z,1009.02
2023-04-14T01:25:50.579Z,1009.02
2023-04-14T01:26:09.459Z,1009.03
2023-04-14T01:26:18.943Z,1008.97
2023-04-14T01:26:28.370Z,1008.99
2023-04-14T01:26:37.789Z,1009.06
2023-04-14T01:26:47.206Z,1009.05
2023-04-14T01:26:56.631Z,1009.05
2023-04-14T01:27:15.476Z,1009.05
2023-04-14T01:27:24.894Z,1009.12
2023-04-14T01:27:34.393Z,1009.09
2023-04-14T01:27:43.808Z,1009.00
2023-04-14T01:27:53.272Z,1009.05
2023-04-14T01:28:02.695Z,1009.05
2023-04-14T01:28:21.624Z,1009.04
2023-04-14T01:28:31.044Z,1009.05
2023-04-14T01:28:40.504Z,1009.03
2023-04-14T01:28:49.921Z,1009.04
2023-04-14T01:28:59.602Z,1009.01
2023-04-14T01:29:08.761Z,1009.10
2023-04-14T01:29:27.584Z,1009.13
2023-04-14T01:29:37.027Z,1009.18
2023-04-14T01:29:46.452Z,1009.18
2023-04-14T01:29:55.881Z,1009.19
2023-04-14T01:30:05.281Z,1009.22
2023-04-14T01:30:14.739Z,1009.22
2023-04-14T01:30:33.556Z,1009.25
2023-04-14T01:30:42.996Z,1009.21
2023-04-14T01:30:52.380Z,1009.31
2023-04-14T01:31:01.796Z,1009.27
2023-04-14T01:31:11.327Z,1009.22
2023-04-14T01:31:20.745Z,1009.26
2023-04-14T01:31:39.607Z,1009.27
2023-04-14T01:31:49.098Z,1009.32
2023-04-14T01:31:58.556Z,1009.28
2023-04-14T01:32:07.827Z,1009.26
2023-04-14T01:32:17.244Z,1009.28
2023-04-14T01:32:26.694Z,1009.23
2023-04-14T01:32:45.511Z,1009.28
2023-04-14T01:32:54.919Z,1009.24
2023-04-14T01:33:04.354Z,1009.25
2023-04-14T01:33:13.733Z,1009.24
2023-04-14T01:33:23.190Z,1009.29
2023-04-14T01:33:32.615Z,1009.29
2023-04-14T01:33:51.461Z,1009.18
2023-04-14T01:34:00.857Z,1009.25
2023-04-14T01:34:10.260Z,1009.26
2023-04-14T01:34:19.679Z,1009.14
2023-04-14T01:34:29.107Z,1009.22
2023-04-14T01:34:38.561Z,1009.22
2023-04-14T01:34:57.361Z,1009.20
2023-04-14T01:35:06.854Z,1009.22
2023-04-14T01:35:16.268Z,1009.22
2023-04-14T01:35:25.704Z,1009.18
2023-04-14T01:35:35.111Z,1009.13
2023-04-14T01:35:44.504Z,1009.13
2023-04-14T01:36:03.350Z,1009.18
2023-04-14T01:36:12.767Z,1009.16
2023-04-14T01:36:22.213Z,1009.18
2023-04-14T01:36:31.633Z,1009.19
2023-04-14T01:36:41.032Z,1009.11
2023-04-14T01:36:50.457Z,1009.13
2023-04-14T01:37:09.297Z,1009.16
2023-04-14T01:37:18.715Z,1009.16
2023-04-14T01:37:28.135Z,1009.15
2023-04-14T01:37:37.555Z,1009.14
2023-04-14T01:37:47.026Z,1009.15
2023-04-14T01:37:56.477Z,1009.16
2023-04-14T01:38:15.291Z,1009.12
2023-04-14T01:38:24.721Z,1009.14
2023-04-14T01:38:34.117Z,1009.13
2023-04-14T01:38:43.540Z,1009.20
2023-04-14T01:38:52.924Z,1009.17
2023-04-14T01:39:02.374Z,1009.10
2023-04-14T01:39:21.208Z,1009.19
2023-04-14T01:39:30.610Z,1009.18
2023-04-14T01:39:40.108Z,1009.13
2023-04-14T01:39:49.509Z,1009.16
2023-04-14T01:39:58.909Z,1009.16
2023-04-14T01:40:08.371Z,1009.18
2023-04-14T01:40:27.192Z,1009.15
2023-04-14T01:40:36.634Z,1009.17
2023-04-14T01:40:46.050Z,1009.20
2023-04-14T01:40:55.467Z,1009.16
2023-04-14T01:41:04.926Z,1009.16
2023-04-14T01:41:14.337Z,1009.20
2023-04-14T01:41:33.248Z,1009.17
2023-04-14T01:41:42.719Z,1009.16
2023-04-14T01:41:52.130Z,1009.13
2023-04-14T01:42:01.548Z,1009.16
2023-04-14T01:42:10.968Z,1009.17
2023-04-14T01:42:20.390Z,1009.14
2023-04-14T01:42:39.228Z,1009.15
2023-04-14T01:42:48.653Z,1009.17
2023-04-14T01:42:58.074Z,1009.17
2023-04-14T01:43:07.494Z,1009.20
2023-04-14T01:43:16.980Z,1009.21
2023-04-14T01:43:26.442Z,1009.23
2023-04-14T01:43:45.326Z,1009.16
2023-04-14T01:43:54.743Z,1009.22
2023-04-14T01:44:04.197Z,1009.21
2023-04-14T01:44:13.610Z,1009.27
2023-04-14T01:44:23.024Z,1009.24
2023-04-14T01:44:32.439Z,1009.20
2023-04-14T01:44:51.331Z,1009.22
2023-04-14T01:45:00.752Z,1009.16
2023-04-14T01:45:10.202Z,1009.27
2023-04-14T01:45:19.628Z,1009.19
2023-04-14T01:45:29.069Z,1009.20
2023-04-14T01:45:38.595Z,1009.18
2023-04-14T01:45:57.457Z,1009.16
2023-04-14T01:46:06.868Z,1009.20
2023-04-14T01:46:16.371Z,1009.14
2023-04-14T01:46:25.681Z,1009.20
2023-04-14T01:46:35.095Z,1009.17
2023-04-14T01:46:44.564Z,1009.15
2023-04-14T01:47:03.407Z,1009.14
2023-04-14T01:47:12.818Z,1009.13
2023-04-14T01:47:22.258Z,1009.17
2023-04-14T01:47:31.722Z,1009.11
2023-04-14T01:47:41.106Z,1009.20
2023-04-14T01:47:50.561Z,1009.12
2023-04-14T01:48:09.352Z,1009.12
2023-04-14T01:48:18.780Z,1009.09
2023-04-14T01:48:28.203Z,1009.14
2023-04-14T01:48:37.597Z,1009.17
2023-04-14T01:48:47.006Z,1009.16
2023-04-14T01:48:56.431Z,1009.11
2023-04-14T01:49:15.335Z,1009.11
2023-04-14T01:49:24.696Z,1009.20
2023-04-14T01:49:34.174Z,1009.13
2023-04-14T01:49:43.527Z,1009.18
2023-04-14T01:49:52.911Z,1009.18
2023-04-14T01:50:02.318Z,1009.17
2023-04-14T01:50:21.164Z,1009.15
2023-04-14T01:50:30.583Z,1009.18
2023-04-14T01:50:40.002Z,1009.13
2023-04-14T01:50:49.423Z,1009.13
2023-04-14T01:50:58.846Z,1009.17
2023-04-14T01:51:08.267Z,1009.15
2023-04-14T01:51:27.159Z,1009.20
2023-04-14T01:51:36.522Z,1009.21
2023-04-14T01:51:45.925Z,1009.21
2023-04-14T01:51:55.404Z,1009.19
2023-04-14T01:52:04.789Z,1009.24
2023-04-14T01:52:14.252Z,1009.22
2023-04-14T01:52:33.109Z,1009.24
2023-04-14T01:52:42.601Z,1009.24
2023-04-14T01:52:52.020Z,1009.22
2023-04-14T01:53:01.452Z,1009.22
2023-04-14T01:53:10.884Z,1009.26
2023-04-14T01:53:20.291Z,1009.26
2023-04-14T01:53:39.175Z,1009.27
2023-04-14T01:53:48.636Z,1009.32
2023-04-14T01:53:58.044Z,1009.31
2023-04-14T01:54:07.487Z,1009.29
2023-04-14T01:54:16.892Z,1009.34
2023-04-14T01:54:26.309Z,1009.35
2023-04-14T01:54:45.167Z,1009.38
2023-04-14T01:54:54.574Z,1009.29
2023-04-14T01:55:03.994Z,1009.36
2023-04-14T01:55:13.375Z,1009.34
2023-04-14T01:55:22.830Z,1009.38
2023-04-14T01:55:32.254Z,1009.33
2023-04-14T01:55:51.101Z,1009.38
2023-04-14T01:56:00.485Z,1009.44
2023-04-14T01:56:09.904Z,1009.35
2023-04-14T01:56:19.315Z,1009.35
2023-04-14T01:56:28.735Z,1009.40
2023-04-14T01:56:38.214Z,1009.35
2023-04-14T01:56:57.044Z,1009.35
2023-04-14T01:57:06.434Z,1009.38
2023-04-14T01:57:15.849Z,1009.41
2023-04-14T01:57:25.308Z,1009.42
2023-04-14T01:57:34.752Z,1009.41
2023-04-14T01:57:44.143Z,1009.47
2023-04-14T01:58:03.045Z,1009.49
2023-04-14T01:58:12.438Z,1009.56
2023-04-14T01:58:21.843Z,1009.44
2023-04-14T01:58:31.279Z,1009.46
2023-04-14T01:58:40.689Z,1009.48
2023-04-14T01:58:50.178Z,1009.43
2023-04-14T01:59:08.968Z,1009.46
2023-04-14T01:59:18.394Z,1009.52
2023-04-14T01:59:27.821Z,1009.47
2023-04-14T01:59:37.247Z,1009.44
2023-04-14T01:59:46.609Z,1009.50
2023-04-14T01:59:56.018Z,1009.48
2023-04-14T02:00:14.871Z,1009.51
2023-04-14T02:00:24.262Z,1009.48
2023-04-14T02:00:33.687Z,1009.51
2023-04-14T02:00:43.203Z,1009.46
2023-04-14T02:00:52.785Z,1009.49
2023-04-14T02:01:02.114Z,1009.50
2023-04-14T02:01:21.444Z,1009.47
2023-04-14T02:01:31.089Z,1009.42
2023-04-14T02:01:40.364Z,1009.44
2023-04-14T02:01:49.811Z,1009.47
2023-04-14T02:01:59.218Z,1009.47
2023-04-14T02:02:08.646Z,1009.53
2023-04-14T02:02:27.728Z,1009.45
2023-04-14T02:02:37.135Z,1009.49
2023-04-14T02:02:46.587Z,1009.49
2023-04-14T02:02:55.908Z,1009.50
2023-04-14T02:03:05.267Z,1009.52
2023-04-14T02:03:14.817Z,1009.53
2023-04-14T02:03:33.607Z,1009.53
2023-04-14T02:03:43.125Z,1009.49
2023-04-14T02:03:52.446Z,1009.57
2023-04-14T02:04:02.052Z,1009.54
2023-04-14T02:04:11.353Z,1009.52
2023-04-14T02:04:20.724Z,1009.57
2023-04-14T02:04:39.492Z,1009.54
2023-04-14T02:04:48.898Z,1009.54
2023-04-14T02:04:58.290Z,1009.54
2023-04-14T02:05:07.720Z,1009.55
2023-04-14T02:05:17.228Z,1009.55
2023-04-14T02:05:26.569Z,1009.57
2023-04-14T02:05:45.442Z,1009.56
2023-04-14T02:05:54.855Z,1009.54
2023-04-14T02:06:04.269Z,1009.56
2023-04-14T02:06:13.687Z,1009.53
2023-04-14T02:06:23.072Z,1009.59
2023-04-14T02:06:32.518Z,1009.59
2023-04-14T02:06:51.265Z,1009.54
2023-04-14T02:07:00.701Z,1009.50
2023-04-14T02:07:10.155Z,1009.49
2023-04-14T02:07:19.570Z,1009.56
2023-04-14T02:07:29.020Z,1009.53
2023-04-14T02:07:38.429Z,1009.54
2023-04-14T02:07:57.228Z,1009.51
2023-04-14T02:08:06.636Z,1009.59
2023-04-14T02:08:16.024Z,1009.56
2023-04-14T02:08:25.436Z,1009.56
2023-04-14T02:08:34.856Z,1009.58
2023-04-14T02:08:44.271Z,1009.54
2023-04-14T02:09:03.154Z,1009.52
2023-04-14T02:09:12.502Z,1009.54
2023-04-14T02:09:21.917Z,1009.55
2023-04-14T02:09:31.346Z,1009.49
2023-04-14T02:09:40.753Z,1009.51
2023-04-14T02:09:50.156Z,1009.52
2023-04-14T02:10:08.992Z,1009.56
2023-04-14T02:10:18.389Z,1009.54
2023-04-14T02:10:27.782Z,1009.54
2023-04-14T02:10:37.172Z,1009.53
2023-04-14T02:10:46.571Z,1009.52
2023-04-14T02:10:55.976Z,1009.55
2023-04-14T02:11:14.790Z,1009.50
2023-04-14T02:11:24.183Z,1009.50
2023-04-14T02:11:33.597Z,1009.52
2023-04-14T02:11:43.044Z,1009.45
2023-04-14T02:11:52.463Z,1009.51
2023-04-14T02:12:01.900Z,1009.51
2023-04-14T02:12:20.735Z,1009.50
2023-04-14T02:12:30.169Z,1009.50
2023-04-14T02:12:39.579Z,1009.48
2023-04-14T02:12:49.001Z,1009.49
2023-04-14T02:12:58.456Z,1009.50